sensor_id;sensor_type;location;lat;lon;timestamp;P1;durP1;ratioP1;P2;durP2;ratioP2
79147;SDS011;68562;51.600;6.524;2023-04-01T00:00:00;2.3;;;0.9;;
79147;SDS011;68562;51.600;6.524;2023-04-01T00:05:00;3.5;;;1.2;;
79147;SDS011;68562;51.600;6.524;2023-04-01T00:10:00;3.4;;;1.4;;
79147;SDS011;68562;51.600;6.524;2023-04-01T00:15:00;1.7;;;1.1;;
79147;SDS011;68562;51.600;6.524;2023-04-01T00:20:00;2.4;;;1.1;;
79147;SDS011;68562;51.600;6.524;2023-04-01T00:25:00;4.7;;;1.4;;
79147;SDS011;68562;51.600;6.524;2023-04-01T00:30:00;3.3;;;1.1;;
79147;SDS011;68562;51.600;6.524;2023-04-01T00:35:00;2.9;;;1.1;;
79147;SDS011;68562;51.600;6.524;2023-04-01T00:40:00;4.2;;;1.5;;
79147;SDS011;68562;51.600;6.524;2023-04-01T00:50:00;3.1;;;1.6;;
79147;SDS011;68562;51.600;6.524;2023-04-01T00:55:00;1.6;;;1.1;;
79147;SDS011;68562;51.600;6.524;2023-04-01T01:00:00;1.8;;;0.8;;
79147;SDS011;68562;51.600;6.524;2023-04-01T01:05:00;3.1;;;1.4;;
79147;SDS011;68562;51.600;6.524;2023-04-01T01:10:01;2.8;;;1.3;;
79147;SDS011;68562;51.600;6.524;2023-04-01T01:15:02;1.7;;;0.8;;
79147;SDS011;68562;51.600;6.524;2023-04-01T01:20:06;0.8;;;0.8;;
79147;SDS011;68562;51.600;6.524;2023-04-01T01:25:05;2.7;;;0.8;;
79147;SDS011;68562;51.600;6.524;2023-04-01T01:30:05;2.1;;;0.9;;
79147;SDS011;68562;51.600;6.524;2023-04-01T01:35:07;1.5;;;1.2;;
79147;SDS011;68562;51.600;6.524;2023-04-01T01:40:00;2.6;;;1.2;;
79147;SDS011;68562;51.600;6.524;2023-04-01T01:45:00;1.2;;;0.9;;
79147;SDS011;68562;51.600;6.524;2023-04-01T01:50:00;2.1;;;1.0;;
79147;SDS011;68562;51.600;6.524;2023-04-01T01:55:00;1.4;;;1.0;;
79147;SDS011;68562;51.600;6.524;2023-04-01T02:00:02;3.0;;;0.9;;
79147;SDS011;68562;51.600;6.524;2023-04-01T02:05:00;1.8;;;0.9;;
79147;SDS011;68562;51.600;6.524;2023-04-01T02:10:00;2.9;;;0.9;;
79147;SDS011;68562;51.600;6.524;2023-04-01T02:15:01;2.9;;;0.7;;
79147;SDS011;68562;51.600;6.524;2023-04-01T02:20:01;1.8;;;0.7;;
79147;SDS011;68562;51.600;6.524;2023-04-01T02:25:01;0.8;;;0.7;;
79147;SDS011;68562;51.600;6.524;2023-04-01T02:30:00;0.9;;;0.8;;
79147;SDS011;68562;51.600;6.524;2023-04-01T02:35:00;1.0;;;0.6;;
79147;SDS011;68562;51.600;6.524;2023-04-01T02:40:00;2.1;;;1.1;;
79147;SDS011;68562;51.600;6.524;2023-04-01T02:45:00;1.6;;;0.9;;
79147;SDS011;68562;51.600;6.524;2023-04-01T02:50:00;1.3;;;0.7;;
79147;SDS011;68562;51.600;6.524;2023-04-01T02:55:00;1.0;;;0.6;;
79147;SDS011;68562;51.600;6.524;2023-04-01T03:00:00;1.0;;;0.9;;
79147;SDS011;68562;51.600;6.524;2023-04-01T03:05:00;1.1;;;0.7;;
79147;SDS011;68562;51.600;6.524;2023-04-01T03:10:00;1.4;;;1.1;;
79147;SDS011;68562;51.600;6.524;2023-04-01T03:15:00;1.4;;;1.0;;
79147;SDS011;68562;51.600;6.524;2023-04-01T03:20:00;1.3;;;1.0;;
79147;SDS011;68562;51.600;6.524;2023-04-01T03:25:00;1.8;;;1.3;;
79147;SDS011;68562;51.600;6.524;2023-04-01T03:30:00;1.8;;;1.6;;
79147;SDS011;68562;51.600;6.524;2023-04-01T03:35:00;1.9;;;1.4;;
79147;SDS011;68562;51.600;6.524;2023-04-01T03:40:00;1.5;;;1.4;;
79147;SDS011;68562;51.600;6.524;2023-04-01T03:45:00;2.3;;;1.5;;
79147;SDS011;68562;51.600;6.524;2023-04-01T03:50:00;2.0;;;1.4;;
79147;SDS011;68562;51.600;6.524;2023-04-01T03:55:00;1.5;;;1.3;;
79147;SDS011;68562;51.600;6.524;2023-04-01T04:00:00;1.6;;;1.5;;
79147;SDS011;68562;51.600;6.524;2023-04-01T04:05:00;2.3;;;1.4;;
79147;SDS011;68562;51.600;6.524;2023-04-01T04:10:00;2.2;;;2.0;;
79147;SDS011;68562;51.600;6.524;2023-04-01T04:15:00;2.5;;;2.3;;
79147;SDS011;68562;51.600;6.524;2023-04-01T04:20:00;2.6;;;2.4;;
79147;SDS011;68562;51.600;6.524;2023-04-01T04:25:00;2.9;;;2.7;;
79147;SDS011;68562;51.600;6.524;2023-04-01T04:30:00;3.4;;;2.5;;
79147;SDS011;68562;51.600;6.524;2023-04-01T04:35:00;2.9;;;2.3;;
79147;SDS011;68562;51.600;6.524;2023-04-01T04:40:00;2.7;;;2.5;;
79147;SDS011;68562;51.600;6.524;2023-04-01T04:45:00;2.4;;;2.2;;
79147;SDS011;68562;51.600;6.524;2023-04-01T04:50:00;3.0;;;2.6;;
79147;SDS011;68562;51.600;6.524;2023-04-01T04:55:00;3.3;;;2.3;;
79147;SDS011;68562;51.600;6.524;2023-04-01T05:00:00;3.8;;;3.4;;
79147;SDS011;68562;51.600;6.524;2023-04-01T05:05:00;5.7;;;3.4;;
79147;SDS011;68562;51.600;6.524;2023-04-01T05:10:00;6.1;;;3.7;;
79147;SDS011;68562;51.600;6.524;2023-04-01T05:15:00;4.3;;;3.9;;
79147;SDS011;68562;51.600;6.524;2023-04-01T05:20:00;5.4;;;4.0;;
79147;SDS011;68562;51.600;6.524;2023-04-01T05:25:00;5.0;;;4.3;;
79147;SDS011;68562;51.600;6.524;2023-04-01T05:30:00;4.0;;;3.6;;
79147;SDS011;68562;51.600;6.524;2023-04-01T05:35:00;4.5;;;3.8;;
79147;SDS011;68562;51.600;6.524;2023-04-01T05:40:00;5.1;;;4.6;;
79147;SDS011;68562;51.600;6.524;2023-04-01T05:45:00;4.5;;;4.1;;
79147;SDS011;68562;51.600;6.524;2023-04-01T05:50:00;5.2;;;4.7;;
79147;SDS011;68562;51.600;6.524;2023-04-01T05:55:00;4.5;;;4.1;;
79147;SDS011;68562;51.600;6.524;2023-04-01T06:00:00;4.8;;;4.3;;
79147;SDS011;68562;51.600;6.524;2023-04-01T06:05:02;4.5;;;4.1;;
79147;SDS011;68562;51.600;6.524;2023-04-01T06:10:00;4.4;;;4.0;;
79147;SDS011;68562;51.600;6.524;2023-04-01T06:15:03;4.4;;;3.5;;
79147;SDS011;68562;51.600;6.524;2023-04-01T06:20:01;4.5;;;4.1;;
79147;SDS011;68562;51.600;6.524;2023-04-01T06:25:04;4.4;;;4.0;;
79147;SDS011;68562;51.600;6.524;2023-04-01T06:30:06;5.2;;;4.7;;
79147;SDS011;68562;51.600;6.524;2023-04-01T06:35:08;3.8;;;3.4;;
79147;SDS011;68562;51.600;6.524;2023-04-01T06:40:03;3.8;;;3.4;;
79147;SDS011;68562;51.600;6.524;2023-04-01T06:45:03;3.7;;;3.3;;
79147;SDS011;68562;51.600;6.524;2023-04-01T06:50:01;3.2;;;2.9;;
79147;SDS011;68562;51.600;6.524;2023-04-01T06:55:00;4.3;;;3.0;;
79147;SDS011;68562;51.600;6.524;2023-04-01T07:00:00;4.7;;;3.6;;
79147;SDS011;68562;51.600;6.524;2023-04-01T07:05:00;4.5;;;4.1;;
79147;SDS011;68562;51.600;6.524;2023-04-01T07:10:00;4.0;;;3.6;;
79147;SDS011;68562;51.600;6.524;2023-04-01T07:15:01;4.4;;;3.8;;
79147;SDS011;68562;51.600;6.524;2023-04-01T07:20:02;6.0;;;5.1;;
79147;SDS011;68562;51.600;6.524;2023-04-01T07:25:02;6.1;;;4.4;;
79147;SDS011;68562;51.600;6.524;2023-04-01T07:30:00;5.5;;;4.7;;
79147;SDS011;68562;51.600;6.524;2023-04-01T07:35:03;5.5;;;4.7;;
79147;SDS011;68562;51.600;6.524;2023-04-01T07:40:03;8.3;;;4.8;;
79147;SDS011;68562;51.600;6.524;2023-04-01T07:45:02;7.3;;;5.9;;
79147;SDS011;68562;51.600;6.524;2023-04-01T07:50:02;9.6;;;6.7;;
79147;SDS011;68562;51.600;6.524;2023-04-01T07:55:01;7.8;;;5.6;;
79147;SDS011;68562;51.600;6.524;2023-04-01T08:00:02;7.2;;;5.3;;
79147;SDS011;68562;51.600;6.524;2023-04-01T08:05:02;7.4;;;5.1;;
79147;SDS011;68562;51.600;6.524;2023-04-01T08:10:00;5.5;;;4.7;;
79147;SDS011;68562;51.600;6.524;2023-04-01T08:15:03;6.7;;;5.5;;
79147;SDS011;68562;51.600;6.524;2023-04-01T08:20:05;7.7;;;5.7;;
79147;SDS011;68562;51.600;6.524;2023-04-01T08:25:00;7.3;;;5.4;;
79147;SDS011;68562;51.600;6.524;2023-04-01T08:30:03;8.4;;;5.6;;
79147;SDS011;68562;51.600;6.524;2023-04-01T08:35:02;8.5;;;6.4;;
79147;SDS011;68562;51.600;6.524;2023-04-01T08:40:00;6.8;;;5.4;;
79147;SDS011;68562;51.600;6.524;2023-04-01T08:45:10;6.5;;;4.7;;
79147;SDS011;68562;51.600;6.524;2023-04-01T08:50:04;9.0;;;6.2;;
79147;SDS011;68562;51.600;6.524;2023-04-01T08:55:02;7.1;;;5.1;;
79147;SDS011;68562;51.600;6.524;2023-04-01T09:00:02;6.7;;;6.0;;
79147;SDS011;68562;51.600;6.524;2023-04-01T09:05:05;6.3;;;5.4;;
79147;SDS011;68562;51.600;6.524;2023-04-01T09:20:05;8.8;;;4.9;;
79147;SDS011;68562;51.600;6.524;2023-04-01T09:25:02;5.6;;;3.8;;
79147;SDS011;68562;51.600;6.524;2023-04-01T09:35:01;5.0;;;3.5;;
79147;SDS011;68562;51.600;6.524;2023-04-01T09:40:09;4.8;;;3.2;;
79147;SDS011;68562;51.600;6.524;2023-04-01T09:45:00;7.0;;;4.0;;
79147;SDS011;68562;51.600;6.524;2023-04-01T09:50:06;4.4;;;2.9;;
79147;SDS011;68562;51.600;6.524;2023-04-01T09:55:04;4.5;;;3.7;;
79147;SDS011;68562;51.600;6.524;2023-04-01T10:15:09;5.0;;;4.4;;
79147;SDS011;68562;51.600;6.524;2023-04-01T10:20:02;6.1;;;3.9;;
79147;SDS011;68562;51.600;6.524;2023-04-01T10:25:05;5.2;;;3.0;;
79147;SDS011;68562;51.600;6.524;2023-04-01T10:40:08;5.5;;;3.9;;
79147;SDS011;68562;51.600;6.524;2023-04-01T10:50:05;6.1;;;4.7;;
79147;SDS011;68562;51.600;6.524;2023-04-01T10:55:04;5.9;;;5.0;;
79147;SDS011;68562;51.600;6.524;2023-04-01T11:00:05;6.5;;;4.8;;
79147;SDS011;68562;51.600;6.524;2023-04-01T11:10:08;8.0;;;5.9;;
79147;SDS011;68562;51.600;6.524;2023-04-01T11:20:05;8.4;;;5.7;;
79147;SDS011;68562;51.600;6.524;2023-04-01T11:25:05;6.7;;;4.5;;
79147;SDS011;68562;51.600;6.524;2023-04-01T11:35:03;7.5;;;4.1;;
79147;SDS011;68562;51.600;6.524;2023-04-01T11:40:03;7.3;;;5.4;;
79147;SDS011;68562;51.600;6.524;2023-04-01T11:45:03;5.8;;;4.1;;
79147;SDS011;68562;51.600;6.524;2023-04-01T11:50:03;5.8;;;4.0;;
79147;SDS011;68562;51.600;6.524;2023-04-01T11:55:04;4.1;;;3.2;;
79147;SDS011;68562;51.600;6.524;2023-04-01T12:00:02;6.9;;;3.9;;
79147;SDS011;68562;51.600;6.524;2023-04-01T12:05:03;5.3;;;4.0;;
79147;SDS011;68562;51.600;6.524;2023-04-01T12:10:02;4.8;;;3.6;;
79147;SDS011;68562;51.600;6.524;2023-04-01T12:15:02;5.5;;;3.7;;
79147;SDS011;68562;51.600;6.524;2023-04-01T12:20:01;5.5;;;4.1;;
79147;SDS011;68562;51.600;6.524;2023-04-01T12:25:03;5.0;;;3.6;;
79147;SDS011;68562;51.600;6.524;2023-04-01T12:30:06;5.3;;;3.9;;
79147;SDS011;68562;51.600;6.524;2023-04-01T12:35:02;4.7;;;3.7;;
79147;SDS011;68562;51.600;6.524;2023-04-01T12:40:02;5.2;;;4.2;;
79147;SDS011;68562;51.600;6.524;2023-04-01T12:45:03;6.0;;;4.3;;
79147;SDS011;68562;51.600;6.524;2023-04-01T12:50:06;6.2;;;4.1;;
79147;SDS011;68562;51.600;6.524;2023-04-01T12:55:03;6.9;;;4.5;;
79147;SDS011;68562;51.600;6.524;2023-04-01T13:00:04;3.4;;;3.0;;
79147;SDS011;68562;51.600;6.524;2023-04-01T13:05:09;3.5;;;2.5;;
79147;SDS011;68562;51.600;6.524;2023-04-01T13:10:01;4.6;;;2.9;;
79147;SDS011;68562;51.600;6.524;2023-04-01T13:15:05;4.3;;;3.2;;
79147;SDS011;68562;51.600;6.524;2023-04-01T13:20:02;6.6;;;3.1;;
79147;SDS011;68562;51.600;6.524;2023-04-01T13:25:01;5.2;;;3.5;;
79147;SDS011;68562;51.600;6.524;2023-04-01T13:30:03;6.4;;;4.9;;
79147;SDS011;68562;51.600;6.524;2023-04-01T13:35:03;6.3;;;4.2;;
79147;SDS011;68562;51.600;6.524;2023-04-01T13:45:00;6.8;;;4.6;;
79147;SDS011;68562;51.600;6.524;2023-04-01T13:50:06;8.2;;;5.3;;
79147;SDS011;68562;51.600;6.524;2023-04-01T13:55:04;6.0;;;4.2;;
79147;SDS011;68562;51.600;6.524;2023-04-01T14:00:03;7.1;;;5.3;;
79147;SDS011;68562;51.600;6.524;2023-04-01T14:05:07;7.6;;;5.2;;
79147;SDS011;68562;51.600;6.524;2023-04-01T14:15:06;7.1;;;4.9;;
79147;SDS011;68562;51.600;6.524;2023-04-01T14:20:02;6.1;;;4.9;;
79147;SDS011;68562;51.600;6.524;2023-04-01T14:25:05;5.7;;;4.8;;
79147;SDS011;68562;51.600;6.524;2023-04-01T14:30:04;5.0;;;4.5;;
79147;SDS011;68562;51.600;6.524;2023-04-01T14:35:09;4.3;;;3.6;;
79147;SDS011;68562;51.600;6.524;2023-04-01T14:40:05;4.3;;;3.9;;
79147;SDS011;68562;51.600;6.524;2023-04-01T14:45:02;5.0;;;3.9;;
79147;SDS011;68562;51.600;6.524;2023-04-01T14:50:05;7.2;;;4.3;;
79147;SDS011;68562;51.600;6.524;2023-04-01T14:55:02;5.7;;;3.9;;
79147;SDS011;68562;51.600;6.524;2023-04-01T15:00:01;4.4;;;3.6;;
79147;SDS011;68562;51.600;6.524;2023-04-01T15:05:03;4.4;;;3.2;;
79147;SDS011;68562;51.600;6.524;2023-04-01T15:10:01;5.1;;;3.9;;
79147;SDS011;68562;51.600;6.524;2023-04-01T15:15:03;4.9;;;4.2;;
79147;SDS011;68562;51.600;6.524;2023-04-01T15:20:04;4.7;;;3.5;;
79147;SDS011;68562;51.600;6.524;2023-04-01T15:25:05;7.3;;;4.4;;
79147;SDS011;68562;51.600;6.524;2023-04-01T15:35:01;4.8;;;3.6;;
79147;SDS011;68562;51.600;6.524;2023-04-01T15:40:02;5.5;;;4.0;;
79147;SDS011;68562;51.600;6.524;2023-04-01T15:45:03;5.2;;;4.2;;
79147;SDS011;68562;51.600;6.524;2023-04-01T15:55:08;4.8;;;3.7;;
79147;SDS011;68562;51.600;6.524;2023-04-01T16:00:02;5.3;;;3.1;;
79147;SDS011;68562;51.600;6.524;2023-04-01T16:05:01;4.1;;;3.2;;
79147;SDS011;68562;51.600;6.524;2023-04-01T16:10:06;7.1;;;4.7;;
79147;SDS011;68562;51.600;6.524;2023-04-01T16:15:03;4.4;;;3.1;;
79147;SDS011;68562;51.600;6.524;2023-04-01T16:20:02;5.4;;;3.5;;
79147;SDS011;68562;51.600;6.524;2023-04-01T16:25:07;3.9;;;3.5;;
79147;SDS011;68562;51.600;6.524;2023-04-01T16:30:01;5.1;;;3.5;;
79147;SDS011;68562;51.600;6.524;2023-04-01T16:35:04;5.3;;;3.5;;
79147;SDS011;68562;51.600;6.524;2023-04-01T16:40:02;4.6;;;3.3;;
79147;SDS011;68562;51.600;6.524;2023-04-01T16:45:00;3.7;;;3.1;;
79147;SDS011;68562;51.600;6.524;2023-04-01T16:50:06;3.4;;;2.4;;
79147;SDS011;68562;51.600;6.524;2023-04-01T16:55:01;2.8;;;2.0;;
79147;SDS011;68562;51.600;6.524;2023-04-01T17:00:02;2.3;;;1.3;;
79147;SDS011;68562;51.600;6.524;2023-04-01T17:05:00;3.2;;;2.1;;
79147;SDS011;68562;51.600;6.524;2023-04-01T17:15:02;2.5;;;2.2;;
79147;SDS011;68562;51.600;6.524;2023-04-01T17:20:11;6.8;;;5.1;;
79147;SDS011;68562;51.600;6.524;2023-04-01T17:25:03;8.0;;;5.2;;
79147;SDS011;68562;51.600;6.524;2023-04-01T17:30:05;6.0;;;4.5;;
79147;SDS011;68562;51.600;6.524;2023-04-01T17:35:00;5.7;;;4.7;;
79147;SDS011;68562;51.600;6.524;2023-04-01T17:40:04;3.9;;;2.6;;
79147;SDS011;68562;51.600;6.524;2023-04-01T17:45:01;5.0;;;4.0;;
79147;SDS011;68562;51.600;6.524;2023-04-01T17:50:02;5.9;;;3.9;;
79147;SDS011;68562;51.600;6.524;2023-04-01T17:55:06;4.6;;;3.2;;
79147;SDS011;68562;51.600;6.524;2023-04-01T18:00:01;5.5;;;3.2;;
79147;SDS011;68562;51.600;6.524;2023-04-01T18:10:04;4.1;;;2.6;;
79147;SDS011;68562;51.600;6.524;2023-04-01T18:15:03;3.3;;;2.3;;
79147;SDS011;68562;51.600;6.524;2023-04-01T18:20:02;2.6;;;2.2;;
79147;SDS011;68562;51.600;6.524;2023-04-01T18:25:01;8.4;;;4.3;;
79147;SDS011;68562;51.600;6.524;2023-04-01T18:30:00;4.3;;;3.2;;
79147;SDS011;68562;51.600;6.524;2023-04-01T18:35:02;3.0;;;2.7;;
79147;SDS011;68562;51.600;6.524;2023-04-01T18:40:02;3.9;;;2.3;;
79147;SDS011;68562;51.600;6.524;2023-04-01T18:45:01;2.9;;;2.4;;
79147;SDS011;68562;51.600;6.524;2023-04-01T18:50:02;4.2;;;2.5;;
79147;SDS011;68562;51.600;6.524;2023-04-01T19:00:02;3.1;;;2.1;;
79147;SDS011;68562;51.600;6.524;2023-04-01T19:05:03;2.3;;;2.0;;
79147;SDS011;68562;51.600;6.524;2023-04-01T19:10:00;3.5;;;2.0;;
79147;SDS011;68562;51.600;6.524;2023-04-01T19:15:09;3.0;;;2.4;;
79147;SDS011;68562;51.600;6.524;2023-04-01T19:20:02;3.0;;;1.7;;
79147;SDS011;68562;51.600;6.524;2023-04-01T19:25:02;3.2;;;2.3;;
79147;SDS011;68562;51.600;6.524;2023-04-01T19:30:05;2.2;;;1.7;;
79147;SDS011;68562;51.600;6.524;2023-04-01T19:35:04;2.3;;;1.8;;
79147;SDS011;68562;51.600;6.524;2023-04-01T19:40:03;2.0;;;1.5;;
79147;SDS011;68562;51.600;6.524;2023-04-01T19:45:03;1.7;;;1.1;;
79147;SDS011;68562;51.600;6.524;2023-04-01T19:50:01;1.1;;;1.0;;
79147;SDS011;68562;51.600;6.524;2023-04-01T19:55:02;0.7;;;0.7;;
79147;SDS011;68562;51.600;6.524;2023-04-01T20:00:02;0.9;;;0.8;;
79147;SDS011;68562;51.600;6.524;2023-04-01T20:05:01;1.1;;;1.0;;
79147;SDS011;68562;51.600;6.524;2023-04-01T20:10:02;1.1;;;1.0;;
79147;SDS011;68562;51.600;6.524;2023-04-01T20:15:00;1.0;;;0.9;;
79147;SDS011;68562;51.600;6.524;2023-04-01T20:20:00;1.9;;;1.0;;
79147;SDS011;68562;51.600;6.524;2023-04-01T20:25:01;0.9;;;0.9;;
79147;SDS011;68562;51.600;6.524;2023-04-01T20:30:05;1.0;;;0.8;;
79147;SDS011;68562;51.600;6.524;2023-04-01T20:35:08;1.2;;;1.1;;
79147;SDS011;68562;51.600;6.524;2023-04-01T20:40:06;1.1;;;1.0;;
79147;SDS011;68562;51.600;6.524;2023-04-01T20:45:06;1.1;;;1.0;;
79147;SDS011;68562;51.600;6.524;2023-04-01T20:50:00;1.1;;;1.0;;
79147;SDS011;68562;51.600;6.524;2023-04-01T21:00:03;1.2;;;1.1;;
79147;SDS011;68562;51.600;6.524;2023-04-01T21:05:07;1.2;;;1.1;;
79147;SDS011;68562;51.600;6.524;2023-04-01T21:10:05;1.3;;;1.1;;
79147;SDS011;68562;51.600;6.524;2023-04-01T21:15:03;1.4;;;1.3;;
79147;SDS011;68562;51.600;6.524;2023-04-01T21:20:04;1.5;;;1.4;;
79147;SDS011;68562;51.600;6.524;2023-04-01T21:25:03;1.6;;;1.5;;
79147;SDS011;68562;51.600;6.524;2023-04-01T21:30:01;1.4;;;1.3;;
79147;SDS011;68562;51.600;6.524;2023-04-01T21:35:01;1.9;;;1.3;;
79147;SDS011;68562;51.600;6.524;2023-04-01T21:40:02;1.7;;;1.6;;
79147;SDS011;68562;51.600;6.524;2023-04-01T21:45:04;1.7;;;1.5;;
79147;SDS011;68562;51.600;6.524;2023-04-01T21:50:06;1.7;;;1.5;;
79147;SDS011;68562;51.600;6.524;2023-04-01T21:55:07;1.6;;;1.5;;
79147;SDS011;68562;51.600;6.524;2023-04-01T22:00:06;1.7;;;1.6;;
79147;SDS011;68562;51.600;6.524;2023-04-01T22:05:02;1.9;;;1.7;;
79147;SDS011;68562;51.600;6.524;2023-04-01T22:10:01;2.0;;;1.7;;
79147;SDS011;68562;51.600;6.524;2023-04-01T22:15:01;2.6;;;2.0;;
79147;SDS011;68562;51.600;6.524;2023-04-01T22:20:03;1.8;;;1.7;;
79147;SDS011;68562;51.600;6.524;2023-04-01T22:25:02;2.1;;;1.9;;
79147;SDS011;68562;51.600;6.524;2023-04-01T22:30:04;2.1;;;2.0;;
79147;SDS011;68562;51.600;6.524;2023-04-01T22:35:02;2.1;;;1.9;;
79147;SDS011;68562;51.600;6.524;2023-04-01T22:40:06;1.9;;;1.8;;
79147;SDS011;68562;51.600;6.524;2023-04-01T22:45:02;1.8;;;1.7;;
79147;SDS011;68562;51.600;6.524;2023-04-01T22:50:02;1.6;;;1.5;;
79147;SDS011;68562;51.600;6.524;2023-04-01T22:55:00;1.7;;;1.6;;
79147;SDS011;68562;51.600;6.524;2023-04-01T23:00:01;1.7;;;1.6;;
79147;SDS011;68562;51.600;6.524;2023-04-01T23:05:00;1.7;;;1.5;;
79147;SDS011;68562;51.600;6.524;2023-04-01T23:10:00;1.5;;;1.4;;
79147;SDS011;68562;51.600;6.524;2023-04-01T23:15:00;1.8;;;1.7;;
79147;SDS011;68562;51.600;6.524;2023-04-01T23:20:02;1.4;;;1.3;;
79147;SDS011;68562;51.600;6.524;2023-04-01T23:25:01;1.6;;;1.5;;
79147;SDS011;68562;51.600;6.524;2023-04-01T23:30:00;1.6;;;1.5;;
79147;SDS011;68562;51.600;6.524;2023-04-01T23:35:00;1.9;;;1.7;;
79147;SDS011;68562;51.600;6.524;2023-04-01T23:40:00;1.7;;;1.6;;
79147;SDS011;68562;51.600;6.524;2023-04-01T23:45:00;1.5;;;1.4;;
79147;SDS011;68562;51.600;6.524;2023-04-01T23:50:00;1.8;;;1.6;;
79147;SDS011;68562;51.600;6.524;2023-04-01T23:55:01;1.6;;;1.5;;
